sensor_id;sensor_type;location;lat;lon;timestamp;pressure;altitude;pressure_sealevel;temperature;humidity
16255;BME280;8235;52.198;9.904;2023-03-19T00:01:52;100483.47;;;10.56;94.43
16255;BME280;8235;52.198;9.904;2023-03-19T00:04:19;100486.22;;;10.54;94.84
16255;BME280;8235;52.198;9.904;2023-03-19T00:06:45;100479.19;;;10.53;94.65
16255;BME280;8235;52.198;9.904;2023-03-19T00:09:12;100484.53;;;10.53;95.23
16255;BME280;8235;52.198;9.904;2023-03-19T00:11:38;100483.56;;;10.54;95.51
16255;BME280;8235;52.198;9.904;2023-03-19T00:14:05;100488.78;;;10.56;96.19
16255;BME280;8235;52.198;9.904;2023-03-19T00:16:33;100484.31;;;10.56;96.43
16255;BME280;8235;52.198;9.904;2023-03-19T00:18:59;100481.66;;;10.56;97.01
16255;BME280;8235;52.198;9.904;2023-03-19T00:21:26;100485.19;;;10.57;97.08
16255;BME280;8235;52.198;9.904;2023-03-19T00:23:53;100486.84;;;10.58;97.22
16255;BME280;8235;52.198;9.904;2023-03-19T00:26:21;100487.72;;;10.58;97.46
16255;BME280;8235;52.198;9.904;2023-03-19T00:28:48;100490.38;;;10.58;97.53
16255;BME280;8235;52.198;9.904;2023-03-19T00:31:15;100487.72;;;10.58;97.98
16255;BME280;8235;52.198;9.904;2023-03-19T00:33:43;100484.94;;;10.60;98.22
16255;BME280;8235;52.198;9.904;2023-03-19T00:36:10;100485.91;;;10.59;98.48
16255;BME280;8235;52.198;9.904;2023-03-19T00:38:37;100488.56;;;10.59;98.38
16255;BME280;8235;52.198;9.904;2023-03-19T00:41:05;100489.53;;;10.58;98.85
16255;BME280;8235;52.198;9.904;2023-03-19T00:43:32;100482.38;;;10.58;98.64
16255;BME280;8235;52.198;9.904;2023-03-19T00:45:58;100481.53;;;10.58;98.92
16255;BME280;8235;52.198;9.904;2023-03-19T00:48:25;100474.63;;;10.55;98.93
16255;BME280;8235;52.198;9.904;2023-03-19T00:50:53;100485.38;;;10.54;98.43
16255;BME280;8235;52.198;9.904;2023-03-19T00:53:20;100478.63;;;10.48;98.57
16255;BME280;8235;52.198;9.904;2023-03-19T00:55:47;100483.31;;;10.44;98.25
16255;BME280;8235;52.198;9.904;2023-03-19T00:58:13;100481.91;;;10.39;98.45
16255;BME280;8235;52.198;9.904;2023-03-19T01:00:39;100478.50;;;10.37;98.39
16255;BME280;8235;52.198;9.904;2023-03-19T01:03:06;100478.69;;;10.34;98.41
16255;BME280;8235;52.198;9.904;2023-03-19T01:05:33;100478.88;;;10.31;98.27
16255;BME280;8235;52.198;9.904;2023-03-19T01:08:01;100477.47;;;10.25;97.78
16255;BME280;8235;52.198;9.904;2023-03-19T01:10:27;100480.53;;;10.19;97.42
16255;BME280;8235;52.198;9.904;2023-03-19T01:12:54;100481.84;;;10.12;97.14
16255;BME280;8235;52.198;9.904;2023-03-19T01:15:21;100475.94;;;10.07;97.58
16255;BME280;8235;52.198;9.904;2023-03-19T01:17:47;100474.56;;;10.01;97.31
16255;BME280;8235;52.198;9.904;2023-03-19T01:20:14;100484.63;;;9.96;97.38
16255;BME280;8235;52.198;9.904;2023-03-19T01:22:43;100485.84;;;9.91;97.17
16255;BME280;8235;52.198;9.904;2023-03-19T01:25:12;100476.34;;;9.87;96.93
16255;BME280;8235;52.198;9.904;2023-03-19T01:27:39;100473.81;;;9.85;96.96
16255;BME280;8235;52.198;9.904;2023-03-19T01:30:08;100474.00;;;9.82;96.83
16255;BME280;8235;52.198;9.904;2023-03-19T01:32:34;100476.75;;;9.81;96.97
16255;BME280;8235;52.198;9.904;2023-03-19T01:35:01;100476.84;;;9.79;97.15
16255;BME280;8235;52.198;9.904;2023-03-19T01:37:27;100473.53;;;9.75;97.28
16255;BME280;8235;52.198;9.904;2023-03-19T01:39:54;100476.28;;;9.74;97.50
16255;BME280;8235;52.198;9.904;2023-03-19T01:42:21;100473.72;;;9.72;96.94
16255;BME280;8235;52.198;9.904;2023-03-19T01:44:48;100475.63;;;9.70;97.65
16255;BME280;8235;52.198;9.904;2023-03-19T01:47:16;100474.31;;;9.63;97.44
16255;BME280;8235;52.198;9.904;2023-03-19T01:49:46;100478.94;;;9.60;96.74
16255;BME280;8235;52.198;9.904;2023-03-19T01:52:20;100470.41;;;9.55;96.74
16255;BME280;8235;52.198;9.904;2023-03-19T01:54:49;100473.34;;;9.50;97.25
16255;BME280;8235;52.198;9.904;2023-03-19T01:57:16;100472.19;;;9.40;95.82
16255;BME280;8235;52.198;9.904;2023-03-19T01:59:47;100476.16;;;9.33;97.00
16255;BME280;8235;52.198;9.904;2023-03-19T02:02:20;100480.00;;;9.29;97.04
16255;BME280;8235;52.198;9.904;2023-03-19T02:04:52;100475.72;;;9.26;97.14
16255;BME280;8235;52.198;9.904;2023-03-19T02:07:20;100476.75;;;9.24;96.77
16255;BME280;8235;52.198;9.904;2023-03-19T02:09:47;100476.84;;;9.22;97.19
16255;BME280;8235;52.198;9.904;2023-03-19T02:12:13;100477.78;;;9.21;97.13
16255;BME280;8235;52.198;9.904;2023-03-19T02:14:40;100473.41;;;9.20;97.35
16255;BME280;8235;52.198;9.904;2023-03-19T02:17:08;100477.88;;;9.20;97.66
16255;BME280;8235;52.198;9.904;2023-03-19T02:19:39;100476.06;;;9.20;98.38
16255;BME280;8235;52.198;9.904;2023-03-19T02:22:10;100469.03;;;9.19;98.11
16255;BME280;8235;52.198;9.904;2023-03-19T02:24:40;100473.50;;;9.19;98.58
16255;BME280;8235;52.198;9.904;2023-03-19T02:27:11;100473.59;;;9.17;98.49
16255;BME280;8235;52.198;9.904;2023-03-19T02:29:38;100467.50;;;9.15;98.53
16255;BME280;8235;52.198;9.904;2023-03-19T02:32:05;100473.88;;;9.13;98.00
16255;BME280;8235;52.198;9.904;2023-03-19T02:34:33;100479.28;;;9.11;98.57
16255;BME280;8235;52.198;9.904;2023-03-19T02:37:03;100471.50;;;9.08;98.41
16255;BME280;8235;52.198;9.904;2023-03-19T02:39:33;100469.13;;;9.03;98.61
16255;BME280;8235;52.198;9.904;2023-03-19T02:42:04;100466.63;;;9.00;98.14
16255;BME280;8235;52.198;9.904;2023-03-19T02:44:32;100475.72;;;8.96;97.59
16255;BME280;8235;52.198;9.904;2023-03-19T02:46:58;100470.81;;;8.90;97.00
16255;BME280;8235;52.198;9.904;2023-03-19T02:49:25;100480.81;;;8.85;97.24
16255;BME280;8235;52.198;9.904;2023-03-19T02:51:52;100476.63;;;8.81;96.93
16255;BME280;8235;52.198;9.904;2023-03-19T02:54:18;100480.22;;;8.80;97.97
16255;BME280;8235;52.198;9.904;2023-03-19T02:56:45;100474.16;;;8.78;97.56
16255;BME280;8235;52.198;9.904;2023-03-19T02:59:11;100476.06;;;8.76;97.68
16255;BME280;8235;52.198;9.904;2023-03-19T03:01:39;100480.53;;;8.76;97.95
16255;BME280;8235;52.198;9.904;2023-03-19T03:04:06;100485.84;;;8.76;98.48
16255;BME280;8235;52.198;9.904;2023-03-19T03:06:32;100492.00;;;8.76;98.18
16255;BME280;8235;52.198;9.904;2023-03-19T03:08:59;100484.03;;;8.76;98.03
16255;BME280;8235;52.198;9.904;2023-03-19T03:11:25;100480.53;;;8.76;98.45
16255;BME280;8235;52.198;9.904;2023-03-19T03:13:52;100481.47;;;8.75;98.00
16255;BME280;8235;52.198;9.904;2023-03-19T03:16:18;100487.81;;;8.72;98.16
16255;BME280;8235;52.198;9.904;2023-03-19T03:18:47;100487.81;;;8.72;99.31
16255;BME280;8235;52.198;9.904;2023-03-19T03:21:13;100490.47;;;8.72;99.28
16255;BME280;8235;52.198;9.904;2023-03-19T03:23:44;100496.63;;;8.73;99.13
16255;BME280;8235;52.198;9.904;2023-03-19T03:26:11;100491.41;;;8.71;99.22
16255;BME280;8235;52.198;9.904;2023-03-19T03:28:37;100494.06;;;8.71;99.89
16255;BME280;8235;52.198;9.904;2023-03-19T03:31:05;100488.75;;;8.71;99.42
16255;BME280;8235;52.198;9.904;2023-03-19T03:33:32;100494.06;;;8.71;100.00
16255;BME280;8235;52.198;9.904;2023-03-19T03:35:59;100492.34;;;8.70;99.62
16255;BME280;8235;52.198;9.904;2023-03-19T03:38:26;100488.94;;;8.68;99.72
16255;BME280;8235;52.198;9.904;2023-03-19T03:40:53;100486.44;;;8.65;99.18
16255;BME280;8235;52.198;9.904;2023-03-19T03:43:20;100489.47;;;8.59;100.00
16255;BME280;8235;52.198;9.904;2023-03-19T03:45:47;100484.59;;;8.51;100.00
16255;BME280;8235;52.198;9.904;2023-03-19T03:48:14;100491.00;;;8.47;99.52
16255;BME280;8235;52.198;9.904;2023-03-19T03:50:40;100489.59;;;8.42;99.89
16255;BME280;8235;52.198;9.904;2023-03-19T03:53:08;100491.47;;;8.40;100.00
16255;BME280;8235;52.198;9.904;2023-03-19T03:55:36;100492.31;;;8.40;100.00
16255;BME280;8235;52.198;9.904;2023-03-19T03:58:02;100503.03;;;8.39;100.00
16255;BME280;8235;52.198;9.904;2023-03-19T04:00:29;100495.06;;;8.39;100.00
16255;BME280;8235;52.198;9.904;2023-03-19T04:02:56;100501.13;;;8.41;100.00
16255;BME280;8235;52.198;9.904;2023-03-19T04:05:23;100490.69;;;8.38;100.00
16255;BME280;8235;52.198;9.904;2023-03-19T04:07:50;100496.16;;;8.34;100.00
16255;BME280;8235;52.198;9.904;2023-03-19T04:10:18;100495.41;;;8.32;100.00
16255;BME280;8235;52.198;9.904;2023-03-19T04:12:44;100493.59;;;8.33;100.00
16255;BME280;8235;52.198;9.904;2023-03-19T04:15:11;100496.25;;;8.33;100.00
16255;BME280;8235;52.198;9.904;2023-03-19T04:17:38;100487.44;;;8.32;100.00
16255;BME280;8235;52.198;9.904;2023-03-19T04:20:06;100479.47;;;8.32;100.00
16255;BME280;8235;52.198;9.904;2023-03-19T04:22:33;100482.03;;;8.34;100.00
16255;BME280;8235;52.198;9.904;2023-03-19T04:25:00;100479.41;;;8.34;100.00
16255;BME280;8235;52.198;9.904;2023-03-19T04:27:29;100484.63;;;8.35;100.00
16255;BME280;8235;52.198;9.904;2023-03-19T04:29:55;100481.97;;;8.35;100.00
16255;BME280;8235;52.198;9.904;2023-03-19T04:32:21;100483.75;;;8.35;100.00
16255;BME280;8235;52.198;9.904;2023-03-19T04:34:49;100484.69;;;8.34;100.00
16255;BME280;8235;52.198;9.904;2023-03-19T04:37:15;100486.72;;;8.29;100.00
16255;BME280;8235;52.198;9.904;2023-03-19T04:39:42;100484.31;;;8.24;100.00
16255;BME280;8235;52.198;9.904;2023-03-19T04:42:09;100485.28;;;8.23;100.00
16255;BME280;8235;52.198;9.904;2023-03-19T04:44:38;100487.94;;;8.23;100.00
16255;BME280;8235;52.198;9.904;2023-03-19T04:47:05;100486.22;;;8.22;100.00
16255;BME280;8235;52.198;9.904;2023-03-19T04:49:31;100488.97;;;8.21;100.00
16255;BME280;8235;52.198;9.904;2023-03-19T04:51:58;100485.53;;;8.19;100.00
16255;BME280;8235;52.198;9.904;2023-03-19T04:54:25;100480.41;;;8.16;100.00
16255;BME280;8235;52.198;9.904;2023-03-19T04:56:52;100483.38;;;8.10;100.00
16255;BME280;8235;52.198;9.904;2023-03-19T04:59:19;100481.75;;;8.07;100.00
16255;BME280;8235;52.198;9.904;2023-03-19T05:01:47;100481.94;;;8.04;100.00
16255;BME280;8235;52.198;9.904;2023-03-19T05:04:14;100498.72;;;8.05;100.00
16255;BME280;8235;52.198;9.904;2023-03-19T05:06:41;100488.19;;;8.03;100.00
16255;BME280;8235;52.198;9.904;2023-03-19T05:09:08;100493.50;;;8.03;100.00
16255;BME280;8235;52.198;9.904;2023-03-19T05:11:35;100498.78;;;8.03;100.00
16255;BME280;8235;52.198;9.904;2023-03-19T05:14:01;100498.97;;;8.00;100.00
16255;BME280;8235;52.198;9.904;2023-03-19T05:16:28;100502.47;;;8.00;100.00
16255;BME280;8235;52.198;9.904;2023-03-19T05:18:56;100493.75;;;7.98;100.00
16255;BME280;8235;52.198;9.904;2023-03-19T05:21:22;100504.44;;;7.97;100.00
16255;BME280;8235;52.198;9.904;2023-03-19T05:23:50;100501.78;;;7.97;100.00
16255;BME280;8235;52.198;9.904;2023-03-19T05:26:18;100507.09;;;7.97;100.00
16255;BME280;8235;52.198;9.904;2023-03-19T05:28:45;100511.53;;;7.96;100.00
16255;BME280;8235;52.198;9.904;2023-03-19T05:31:12;100510.66;;;7.96;100.00
16255;BME280;8235;52.198;9.904;2023-03-19T05:33:39;100513.31;;;7.96;100.00
16255;BME280;8235;52.198;9.904;2023-03-19T05:36:07;100514.25;;;7.95;100.00
16255;BME280;8235;52.198;9.904;2023-03-19T05:38:34;100507.25;;;7.94;100.00
16255;BME280;8235;52.198;9.904;2023-03-19T05:41:02;100515.13;;;7.95;100.00
16255;BME280;8235;52.198;9.904;2023-03-19T05:43:29;100519.56;;;7.95;100.00
16255;BME280;8235;52.198;9.904;2023-03-19T05:45:55;100511.69;;;7.93;100.00
16255;BME280;8235;52.198;9.904;2023-03-19T05:48:23;100516.13;;;7.93;100.00
16255;BME280;8235;52.198;9.904;2023-03-19T05:50:49;100522.28;;;7.93;100.00
16255;BME280;8235;52.198;9.904;2023-03-19T05:53:18;100518.88;;;7.91;100.00
16255;BME280;8235;52.198;9.904;2023-03-19T05:55:44;100518.88;;;7.91;100.00
16255;BME280;8235;52.198;9.904;2023-03-19T05:58:11;100518.94;;;7.90;100.00
16255;BME280;8235;52.198;9.904;2023-03-19T06:00:37;100521.59;;;7.90;100.00
16255;BME280;8235;52.198;9.904;2023-03-19T06:03:04;100515.34;;;7.91;100.00
16255;BME280;8235;52.198;9.904;2023-03-19T06:05:30;100510.13;;;7.89;100.00
16255;BME280;8235;52.198;9.904;2023-03-19T06:07:57;100513.84;;;7.87;100.00
16255;BME280;8235;52.198;9.904;2023-03-19T06:10:25;100511.34;;;7.84;100.00
16255;BME280;8235;52.198;9.904;2023-03-19T06:12:52;100520.41;;;7.80;100.00
16255;BME280;8235;52.198;9.904;2023-03-19T06:15:18;100530.16;;;7.79;100.00
16255;BME280;8235;52.198;9.904;2023-03-19T06:17:46;100525.78;;;7.78;100.00
16255;BME280;8235;52.198;9.904;2023-03-19T06:20:12;100531.84;;;7.80;100.00
16255;BME280;8235;52.198;9.904;2023-03-19T06:22:39;100522.97;;;7.81;100.00
16255;BME280;8235;52.198;9.904;2023-03-19T06:25:06;100527.25;;;7.84;100.00
16255;BME280;8235;52.198;9.904;2023-03-19T06:27:34;100526.25;;;7.86;100.00
16255;BME280;8235;52.198;9.904;2023-03-19T06:30:01;100537.50;;;7.90;100.00
16255;BME280;8235;52.198;9.904;2023-03-19T06:32:27;100539.91;;;7.94;100.00
16255;BME280;8235;52.198;9.904;2023-03-19T06:34:54;100553.03;;;7.97;100.00
16255;BME280;8235;52.198;9.904;2023-03-19T06:37:21;100550.13;;;8.02;100.00
16255;BME280;8235;52.198;9.904;2023-03-19T06:39:48;100558.59;;;8.09;100.00
16255;BME280;8235;52.198;9.904;2023-03-19T06:42:15;100556.47;;;8.15;100.00
16255;BME280;8235;52.198;9.904;2023-03-19T06:44:43;100564.97;;;8.22;100.00
16255;BME280;8235;52.198;9.904;2023-03-19T06:47:09;100559.38;;;8.26;100.00
16255;BME280;8235;52.198;9.904;2023-03-19T06:49:36;100571.50;;;8.32;100.00
16255;BME280;8235;52.198;9.904;2023-03-19T06:52:03;100565.94;;;8.37;100.00
16255;BME280;8235;52.198;9.904;2023-03-19T06:54:30;100568.44;;;8.40;100.00
16255;BME280;8235;52.198;9.904;2023-03-19T06:56:57;100570.78;;;8.44;100.00
16255;BME280;8235;52.198;9.904;2023-03-19T06:59:23;100569.78;;;8.47;100.00
16255;BME280;8235;52.198;9.904;2023-03-19T07:01:51;100575.84;;;8.49;100.00
16255;BME280;8235;52.198;9.904;2023-03-19T07:04:18;100580.06;;;8.53;100.00
16255;BME280;8235;52.198;9.904;2023-03-19T07:06:44;100580.84;;;8.55;100.00
16255;BME280;8235;52.198;9.904;2023-03-19T07:09:11;100586.84;;;8.58;100.00
16255;BME280;8235;52.198;9.904;2023-03-19T07:11:37;100584.06;;;8.60;100.00
16255;BME280;8235;52.198;9.904;2023-03-19T07:14:04;100585.69;;;8.62;100.00
16255;BME280;8235;52.198;9.904;2023-03-19T07:16:30;100582.00;;;8.65;100.00
16255;BME280;8235;52.198;9.904;2023-03-19T07:18:58;100592.47;;;8.68;100.00
16255;BME280;8235;52.198;9.904;2023-03-19T07:21:25;100589.66;;;8.71;100.00
16255;BME280;8235;52.198;9.904;2023-03-19T07:23:51;100598.22;;;8.76;100.00
16255;BME280;8235;52.198;9.904;2023-03-19T07:26:18;100610.09;;;8.85;100.00
16255;BME280;8235;52.198;9.904;2023-03-19T07:28:44;100602.38;;;8.96;100.00
16255;BME280;8235;52.198;9.904;2023-03-19T07:31:11;100600.72;;;9.09;100.00
16255;BME280;8235;52.198;9.904;2023-03-19T07:33:37;100593.75;;;9.22;100.00
16255;BME280;8235;52.198;9.904;2023-03-19T07:36:06;100600.13;;;9.34;100.00
16255;BME280;8235;52.198;9.904;2023-03-19T07:38:33;100591.53;;;9.45;100.00
16255;BME280;8235;52.198;9.904;2023-03-19T07:40:59;100598.88;;;9.55;100.00
16255;BME280;8235;52.198;9.904;2023-03-19T07:43:26;100599.28;;;9.63;100.00
16255;BME280;8235;52.198;9.904;2023-03-19T07:45:52;100606.88;;;9.69;100.00
16255;BME280;8235;52.198;9.904;2023-03-19T07:48:19;100600.25;;;9.77;100.00
16255;BME280;8235;52.198;9.904;2023-03-19T07:50:46;100582.38;;;9.79;100.00
16255;BME280;8235;52.198;9.904;2023-03-19T07:53:13;100584.00;;;9.81;100.00
16255;BME280;8235;52.198;9.904;2023-03-19T07:55:40;100599.97;;;9.81;100.00
16255;BME280;8235;52.198;9.904;2023-03-19T07:58:07;100597.22;;;9.83;100.00
16255;BME280;8235;52.198;9.904;2023-03-19T08:00:33;100606.91;;;9.84;100.00
16255;BME280;8235;52.198;9.904;2023-03-19T08:03:00;100606.81;;;9.85;100.00
16255;BME280;8235;52.198;9.904;2023-03-19T08:05:26;100606.59;;;9.88;100.00
16255;BME280;8235;52.198;9.904;2023-03-19T08:07:53;100604.81;;;9.89;100.00
16255;BME280;8235;52.198;9.904;2023-03-19T08:10:21;100608.13;;;9.92;100.00
16255;BME280;8235;52.198;9.904;2023-03-19T08:12:47;100607.09;;;9.95;100.00
16255;BME280;8235;52.198;9.904;2023-03-19T08:15:14;100604.16;;;9.99;100.00
16255;BME280;8235;52.198;9.904;2023-03-19T08:17:41;100606.63;;;10.02;100.00
16255;BME280;8235;52.198;9.904;2023-03-19T08:20:09;100606.44;;;10.05;100.00
16255;BME280;8235;52.198;9.904;2023-03-19T08:22:37;100602.72;;;10.08;100.00
16255;BME280;8235;52.198;9.904;2023-03-19T08:25:05;100604.16;;;10.14;100.00
16255;BME280;8235;52.198;9.904;2023-03-19T08:27:34;100601.16;;;10.20;100.00
16255;BME280;8235;52.198;9.904;2023-03-19T08:30:01;100597.16;;;10.27;100.00
16255;BME280;8235;52.198;9.904;2023-03-19T08:32:29;100600.28;;;10.33;100.00
16255;BME280;8235;52.198;9.904;2023-03-19T08:34:55;100602.53;;;10.39;100.00
16255;BME280;8235;52.198;9.904;2023-03-19T08:37:22;100606.44;;;10.48;100.00
16255;BME280;8235;52.198;9.904;2023-03-19T08:39:49;100606.91;;;10.55;100.00
16255;BME280;8235;52.198;9.904;2023-03-19T08:42:16;100605.66;;;10.60;100.00
16255;BME280;8235;52.198;9.904;2023-03-19T08:44:44;100614.09;;;10.67;100.00
16255;BME280;8235;52.198;9.904;2023-03-19T08:47:10;100609.25;;;10.73;100.00
16255;BME280;8235;52.198;9.904;2023-03-19T08:49:37;100611.41;;;10.81;100.00
16255;BME280;8235;52.198;9.904;2023-03-19T08:52:04;100605.59;;;10.89;100.00
16255;BME280;8235;52.198;9.904;2023-03-19T08:54:31;100613.44;;;11.04;100.00
16255;BME280;8235;52.198;9.904;2023-03-19T08:56:58;100606.59;;;11.27;100.00
16255;BME280;8235;52.198;9.904;2023-03-19T08:59:25;100614.72;;;11.51;100.00
16255;BME280;8235;52.198;9.904;2023-03-19T09:01:53;100619.34;;;11.74;100.00
16255;BME280;8235;52.198;9.904;2023-03-19T09:04:20;100613.53;;;11.95;100.00
16255;BME280;8235;52.198;9.904;2023-03-19T09:06:47;100619.41;;;12.12;100.00
16255;BME280;8235;52.198;9.904;2023-03-19T09:09:16;100618.00;;;12.32;100.00
16255;BME280;8235;52.198;9.904;2023-03-19T09:11:43;100614.88;;;12.51;100.00
16255;BME280;8235;52.198;9.904;2023-03-19T09:14:10;100613.66;;;12.68;100.00
16255;BME280;8235;52.198;9.904;2023-03-19T09:16:37;100609.63;;;12.86;100.00
16255;BME280;8235;52.198;9.904;2023-03-19T09:19:05;100613.94;;;13.00;100.00
16255;BME280;8235;52.198;9.904;2023-03-19T09:21:32;100606.72;;;13.13;100.00
16255;BME280;8235;52.198;9.904;2023-03-19T09:23:58;100603.19;;;13.25;100.00
16255;BME280;8235;52.198;9.904;2023-03-19T09:26:25;100611.88;;;13.40;99.40
16255;BME280;8235;52.198;9.904;2023-03-19T09:28:52;100611.66;;;13.54;98.29
16255;BME280;8235;52.198;9.904;2023-03-19T09:31:18;100611.44;;;13.68;96.18
16255;BME280;8235;52.198;9.904;2023-03-19T09:33:45;100611.97;;;13.84;94.55
16255;BME280;8235;52.198;9.904;2023-03-19T09:36:12;100618.94;;;13.98;92.51
16255;BME280;8235;52.198;9.904;2023-03-19T09:38:40;100619.69;;;14.11;89.61
16255;BME280;8235;52.198;9.904;2023-03-19T09:41:09;100617.75;;;14.24;88.86
16255;BME280;8235;52.198;9.904;2023-03-19T09:43:51;100622.13;;;14.37;86.84
16255;BME280;8235;52.198;9.904;2023-03-19T09:46:25;100619.13;;;14.41;82.85
16255;BME280;8235;52.198;9.904;2023-03-19T09:48:56;100617.16;;;14.43;81.74
16255;BME280;8235;52.198;9.904;2023-03-19T09:51:28;100621.69;;;14.43;80.87
16255;BME280;8235;52.198;9.904;2023-03-19T09:53:59;100623.25;;;14.45;79.99
16255;BME280;8235;52.198;9.904;2023-03-19T09:56:28;100616.81;;;14.48;79.22
16255;BME280;8235;52.198;9.904;2023-03-19T09:58:56;100617.53;;;14.50;78.72
16255;BME280;8235;52.198;9.904;2023-03-19T10:01:25;100616.06;;;14.57;78.52
16255;BME280;8235;52.198;9.904;2023-03-19T10:04:22;100621.53;;;14.67;78.40
16255;BME280;8235;52.198;9.904;2023-03-19T10:06:59;100623.34;;;14.77;78.19
16255;BME280;8235;52.198;9.904;2023-03-19T10:09:40;100620.75;;;14.87;77.63
16255;BME280;8235;52.198;9.904;2023-03-19T10:12:19;100620.25;;;14.93;77.37
16255;BME280;8235;52.198;9.904;2023-03-19T10:15:00;100623.31;;;15.00;76.53
16255;BME280;8235;52.198;9.904;2023-03-19T10:17:32;100627.56;;;15.02;75.26
16255;BME280;8235;52.198;9.904;2023-03-19T10:20:04;100622.06;;;15.04;75.28
16255;BME280;8235;52.198;9.904;2023-03-19T10:22:37;100619.72;;;15.10;75.25
16255;BME280;8235;52.198;9.904;2023-03-19T10:25:09;100616.41;;;15.18;74.92
16255;BME280;8235;52.198;9.904;2023-03-19T10:27:39;100620.41;;;15.23;75.32
16255;BME280;8235;52.198;9.904;2023-03-19T10:30:16;100617.09;;;15.31;74.87
16255;BME280;8235;52.198;9.904;2023-03-19T10:32:45;100613.78;;;15.39;74.87
16255;BME280;8235;52.198;9.904;2023-03-19T10:35:17;100623.13;;;15.44;74.45
16255;BME280;8235;52.198;9.904;2023-03-19T10:37:47;100614.56;;;15.50;74.33
16255;BME280;8235;52.198;9.904;2023-03-19T10:40:19;100615.81;;;15.57;73.89
16255;BME280;8235;52.198;9.904;2023-03-19T10:43:03;100616.84;;;15.66;73.63
16255;BME280;8235;52.198;9.904;2023-03-19T10:45:33;100619.25;;;15.69;72.79
16255;BME280;8235;52.198;9.904;2023-03-19T10:48:02;100616.19;;;15.74;72.65
16255;BME280;8235;52.198;9.904;2023-03-19T10:50:30;100624.56;;;15.80;71.26
16255;BME280;8235;52.198;9.904;2023-03-19T10:53:19;100618.81;;;15.85;71.44
16255;BME280;8235;52.198;9.904;2023-03-19T10:55:53;100620.25;;;15.89;70.76
16255;BME280;8235;52.198;9.904;2023-03-19T10:58:22;100625.22;;;15.93;70.21
16255;BME280;8235;52.198;9.904;2023-03-19T11:00:56;100626.78;;;15.96;69.46
16255;BME280;8235;52.198;9.904;2023-03-19T11:03:29;100631.75;;;16.01;68.81
16255;BME280;8235;52.198;9.904;2023-03-19T11:06:04;100635.03;;;16.04;67.72
16255;BME280;8235;52.198;9.904;2023-03-19T11:08:35;100630.97;;;16.10;66.78
16255;BME280;8235;52.198;9.904;2023-03-19T11:11:03;100629.56;;;16.15;65.14
16255;BME280;8235;52.198;9.904;2023-03-19T11:13:33;100625.78;;;16.18;64.16
16255;BME280;8235;52.198;9.904;2023-03-19T11:16:00;100628.91;;;16.23;63.81
16255;BME280;8235;52.198;9.904;2023-03-19T11:18:28;100625.41;;;16.32;63.49
16255;BME280;8235;52.198;9.904;2023-03-19T11:20:57;100625.75;;;16.39;62.88
16255;BME280;8235;52.198;9.904;2023-03-19T11:23:27;100613.59;;;16.44;62.58
16255;BME280;8235;52.198;9.904;2023-03-19T11:25:58;100628.06;;;16.53;62.61
16255;BME280;8235;52.198;9.904;2023-03-19T11:28:27;100619.44;;;16.59;62.65
16255;BME280;8235;52.198;9.904;2023-03-19T11:31:00;100624.31;;;16.65;62.22
16255;BME280;8235;52.198;9.904;2023-03-19T11:33:41;100628.56;;;16.67;61.55
16255;BME280;8235;52.198;9.904;2023-03-19T11:36:12;100628.41;;;16.69;60.75
16255;BME280;8235;52.198;9.904;2023-03-19T11:38:54;100618.97;;;16.75;60.99
16255;BME280;8235;52.198;9.904;2023-03-19T11:41:32;100622.22;;;16.78;60.86
16255;BME280;8235;52.198;9.904;2023-03-19T11:44:03;100620.84;;;16.84;60.90
16255;BME280;8235;52.198;9.904;2023-03-19T11:46:38;100617.59;;;16.90;61.48
16255;BME280;8235;52.198;9.904;2023-03-19T11:49:29;100609.81;;;16.96;61.24
16255;BME280;8235;52.198;9.904;2023-03-19T11:52:01;100611.53;;;16.97;60.98
16255;BME280;8235;52.198;9.904;2023-03-19T11:54:34;100609.25;;;17.02;60.63
16255;BME280;8235;52.198;9.904;2023-03-19T11:57:08;100603.44;;;17.07;60.83
16255;BME280;8235;52.198;9.904;2023-03-19T11:59:48;100605.88;;;17.10;60.47
16255;BME280;8235;52.198;9.904;2023-03-19T12:02:36;100611.97;;;17.12;60.10
16255;BME280;8235;52.198;9.904;2023-03-19T12:05:15;100609.28;;;17.12;59.69
16255;BME280;8235;52.198;9.904;2023-03-19T12:07:49;100609.41;;;17.11;59.21
16255;BME280;8235;52.198;9.904;2023-03-19T12:10:34;100606.72;;;17.11;59.63
16255;BME280;8235;52.198;9.904;2023-03-19T12:13:16;100614.94;;;17.09;59.08
16255;BME280;8235;52.198;9.904;2023-03-19T12:15:52;100616.06;;;17.07;59.27
16255;BME280;8235;52.198;9.904;2023-03-19T12:18:33;100608.69;;;17.09;59.70
16255;BME280;8235;52.198;9.904;2023-03-19T12:21:09;100611.97;;;17.12;59.61
16255;BME280;8235;52.198;9.904;2023-03-19T12:23:45;100611.41;;;17.18;60.22
16255;BME280;8235;52.198;9.904;2023-03-19T12:26:21;100617.19;;;17.23;60.16
16255;BME280;8235;52.198;9.904;2023-03-19T12:28:55;100625.00;;;17.26;59.49
16255;BME280;8235;52.198;9.904;2023-03-19T12:31:47;100621.19;;;17.29;58.88
16255;BME280;8235;52.198;9.904;2023-03-19T12:34:24;100616.94;;;17.26;58.55
16255;BME280;8235;52.198;9.904;2023-03-19T12:36:59;100621.03;;;17.21;58.16
16255;BME280;8235;52.198;9.904;2023-03-19T12:39:34;100612.94;;;17.11;57.62
16255;BME280;8235;52.198;9.904;2023-03-19T12:42:03;100612.38;;;17.08;58.05
16255;BME280;8235;52.198;9.904;2023-03-19T12:44:35;100622.69;;;17.02;58.11
16255;BME280;8235;52.198;9.904;2023-03-19T12:47:05;100622.00;;;17.00;58.39
16255;BME280;8235;52.198;9.904;2023-03-19T12:49:36;100623.84;;;17.00;58.63
16255;BME280;8235;52.198;9.904;2023-03-19T12:52:12;100625.38;;;16.93;58.25
16255;BME280;8235;52.198;9.904;2023-03-19T12:54:44;100621.97;;;16.91;57.90
16255;BME280;8235;52.198;9.904;2023-03-19T12:57:17;100619.69;;;16.86;57.80
16255;BME280;8235;52.198;9.904;2023-03-19T12:59:52;100618.84;;;16.86;57.75
16255;BME280;8235;52.198;9.904;2023-03-19T13:02:24;100613.47;;;16.86;57.53
16255;BME280;8235;52.198;9.904;2023-03-19T13:04:55;100617.13;;;16.85;57.30
16255;BME280;8235;52.198;9.904;2023-03-19T13:07:27;100614.19;;;16.88;57.28
16255;BME280;8235;52.198;9.904;2023-03-19T13:10:00;100618.84;;;16.86;56.84
16255;BME280;8235;52.198;9.904;2023-03-19T13:12:31;100616.16;;;16.86;56.28